METAR AND TAF INFORMATION
METAR FOR LTCJ
ADDS - METARS form results

(1315 UTC 17 July 2018)
Data provider http://aviationweather.gov/adds/metars/
 
METAR text: LTCJ 171250Z VRB03KT 9999 FEW040 38/07 Q1000 RMK RWY20 27007KT 240V310
Conditions at: LTCJ (BATMAN (TUR-AFB), TR) observed 1250 UTC 17 July 2018
Temperature: 38.0°C (100°F)
Dewpoint: 7.0°C (45°F) [RH = 15%]
Pressure (altimeter): 29.53 inches Hg (1000.0 mb)
Winds: variable direction winds at 3 MPH (3 knots; 1.6 m/s)
Visibility: 6 or more miles (10+ km)
Ceiling: at least 12,000 feet AGL
Clouds: few clouds at 4000 feet AGL
Weather: no significant weather observed at this time

METAR text: LTCJ 171220Z 21007KT 180V240 9999 FEW040 37/08 Q1001 RMK RWY20 VRB04KT
Conditions at: LTCJ (BATMAN (TUR-AFB), TR) observed 1220 UTC 17 July 2018
Temperature: 37.0°C (99°F)
Dewpoint: 8.0°C (46°F) [RH = 17%]
Pressure (altimeter): 29.56 inches Hg (1001.0 mb)
Winds: from the SSW (210 degrees) at 8 MPH (7 knots; 3.6 m/s)
Visibility: 6 or more miles (10+ km)
Ceiling: at least 12,000 feet AGL
Clouds: few clouds at 4000 feet AGL
Weather: no significant weather observed at this time

Forecast for: LTCJ (BATMAN (TUR-AFB), TR)
Text: TAF LTCJ 171040Z 1712/1812 03008KT CAVOK
Forecast period: 1200 UTC 17 July 2018 to 1200 UTC 18 July 2018
Forecast type: FROM: standard forecast or significant change
Winds: from the NNE (30 degrees) at 9 MPH (8 knots; 4.2 m/s)
Visibility: 6 or more miles (10+ km)
Clouds: not forecast
Weather: NSW  (no significant weather)

 AIRPORT MAP

 RUNWAY INFORMATION
Runway 02 Runway length 10000 ft Runway width 150 ft
Runway elevation 1796 ft Runway displaced threshold 0 ft Runway heading 26
Runway 20 Runway length 10000 ft Runway width 150 ft
Runway elevation 1822 ft Runway displaced threshold 0 ft Runway heading 206

 AIRPORT FREQUENCIES
Type APP Name DIYARBAKIR Frequency 122.1 MHZ
Type GND Name GND Frequency 121.95 MHZ
Type TWR Name TWR Frequency 122.1 MHZ

 AIRPORT NEAR NAVIGATION AIDS
Type TACAN Name Batman Frequency 111600 KHZ
Type VOR-DME Name Batman Frequency 116200 KHZ
Type NDB Name Batman Frequency 470 KHZ



Copyright © 2011 - 2018 BirgenAir Virtual Airlines. All rights reserved. Developed by Goktug Unver